createdAt,value
2022-08-03T00:14:44.011Z,49.50
2022-08-03T00:30:00.177Z,50.84
2022-08-03T00:44:27.476Z,51.48
2022-08-03T00:59:19.292Z,49.87
2022-08-03T01:14:18.874Z,50.37
2022-08-03T01:29:30.504Z,53.76
2022-08-03T01:44:30.758Z,51.28
2022-08-03T01:59:18.650Z,51.21
2022-08-03T02:14:09.976Z,51.51
2022-08-03T02:29:01.490Z,52.00
2022-08-03T02:44:06.414Z,52.92
2022-08-03T02:58:44.132Z,53.47
2022-08-03T03:13:33.925Z,53.63
2022-08-03T03:28:25.482Z,53.39
2022-08-03T03:43:16.361Z,53.64
2022-08-03T03:58:08.279Z,53.73
2022-08-03T04:13:00.201Z,54.54
2022-08-03T04:28:08.155Z,54.70
2022-08-03T04:42:43.374Z,55.26
2022-08-03T04:57:34.163Z,54.75
2022-08-03T05:12:32.055Z,54.10
2022-08-03T05:27:19.532Z,53.58
2022-08-03T05:42:11.763Z,53.04
2022-08-03T05:57:03.531Z,51.97
2022-08-03T06:11:55.587Z,50.80
2022-08-03T06:26:48.405Z,50.04
2022-08-03T06:41:44.734Z,48.23
2022-08-03T06:56:33.164Z,47.67
2022-08-03T07:11:27.337Z,46.24
2022-08-03T07:26:20.993Z,45.42
2022-08-03T07:41:13.453Z,44.83
2022-08-03T07:56:06.463Z,44.64
2022-08-03T08:10:59.051Z,43.77
2022-08-03T08:25:51.867Z,43.45
2022-08-03T08:40:44.246Z,43.37
2022-08-03T08:55:58.447Z,42.19
2022-08-03T09:10:30.339Z,41.49
2022-08-03T09:25:26.517Z,41.46
2022-08-03T09:40:39.297Z,41.79
2022-08-03T09:56:34.126Z,40.58
2022-08-03T10:10:32.349Z,40.36
2022-08-03T10:25:23.406Z,39.78
2022-08-03T10:40:33.300Z,39.01
2022-08-03T10:55:52.561Z,37.93
2022-08-03T11:10:52.121Z,38.24
2022-08-03T11:26:13.002Z,36.84
2022-08-03T11:41:12.694Z,36.44
2022-08-03T11:56:05.655Z,35.40
2022-08-03T12:11:00.022Z,35.15
2022-08-03T12:25:53.675Z,33.84
2022-08-03T12:40:46.951Z,33.03
2022-08-03T12:55:56.592Z,32.87
2022-08-03T13:10:32.387Z,31.99
2022-08-03T13:25:25.908Z,31.21
2022-08-03T13:40:19.082Z,30.61
2022-08-03T13:55:12.460Z,30.60
2022-08-03T14:10:05.489Z,30.21
2022-08-03T14:24:59.051Z,29.87
2022-08-03T14:40:01.120Z,29.68
2022-08-03T14:54:49.426Z,28.52
2022-08-03T15:09:43.500Z,27.16
2022-08-03T15:24:36.366Z,27.74
2022-08-03T15:39:30.192Z,27.18
2022-08-03T15:54:24.494Z,26.71
2022-08-03T16:09:23.948Z,26.12
2022-08-03T16:24:09.657Z,28.13
2022-08-03T16:38:58.987Z,28.87
2022-08-03T16:54:05.617Z,29.57
2022-08-03T17:08:41.762Z,29.78
2022-08-03T17:23:37.018Z,30.22
2022-08-03T17:38:34.738Z,30.10
2022-08-03T17:53:24.703Z,30.51
2022-08-03T18:08:18.801Z,31.37
2022-08-03T18:23:24.818Z,31.56
2022-08-03T18:38:05.437Z,33.34
2022-08-03T18:53:19.389Z,33.71
2022-08-03T19:08:15.994Z,34.26
2022-08-03T19:23:11.174Z,35.54
2022-08-03T19:38:03.020Z,36.85
2022-08-03T19:52:55.133Z,38.07
2022-08-03T20:07:48.332Z,39.15
2022-08-03T20:22:39.079Z,39.38
2022-08-03T20:37:30.480Z,40.24
2022-08-03T20:52:21.966Z,40.31
2022-08-03T21:07:17.008Z,41.68
2022-08-03T21:22:07.766Z,42.82
2022-08-03T21:36:59.920Z,42.98
2022-08-03T21:51:52.463Z,40.24
2022-08-03T22:06:44.701Z,41.01
2022-08-03T22:21:37.057Z,41.07
2022-08-03T22:36:27.904Z,40.72
2022-08-03T22:51:21.446Z,40.64
2022-08-03T23:06:12.915Z,40.79
2022-08-03T23:21:11.095Z,41.37
2022-08-03T23:36:18.755Z,41.58
2022-08-03T23:50:57.460Z,42.33
